Time;durP1;ratioP1;P1;durP2;ratioP2;P2;SDS_P1;SDS_P2;PMS_P1;PMS_P2;Temp;Humidity;BMP_temperature;BMP_pressure;BME280_temperature;BME280_humidity;BME280_pressure;Samples;Min_cycle;Max_cycle;Signal;HPM_P1;HPM_P2
2023/06/18 00:00:26;;;;;;;;;;;16.30;56.40;;;;;;4131909;28;19962;-82
2023/06/18 00:02:47;;;;;;;;;;;16.20;56.80;;;;;;4131273;28;19989;-81
2023/06/18 00:05:08;;;;;;;;;;;16.20;56.90;;;;;;4125602;28;20490;-83
2023/06/18 00:07:28;;;;;;;;;;;16.10;56.80;;;;;;4126371;28;19949;-84
2023/06/18 00:09:49;;;;;;;;;;;16.10;56.70;;;;;;4133302;28;19914;-81
2023/06/18 00:12:10;;;;;;;;;;;16.00;56.80;;;;;;4132159;28;20007;-83
2023/06/18 00:14:31;;;;;;;;;;;16.00;56.80;;;;;;4132259;28;19972;-81
2023/06/18 00:16:52;;;;;;;;;;;16.00;56.90;;;;;;4121969;28;19918;-82
2023/06/18 00:19:13;;;;;;;;;;;16.00;57.40;;;;;;4131734;28;20535;-82
2023/06/18 00:21:34;;;;;;;;;;;15.90;57.20;;;;;;4132276;28;19918;-83
2023/06/18 00:23:55;;;;;;;;;;;15.90;57.20;;;;;;4131333;28;19917;-82
2023/06/18 00:26:16;;;;;;;;;;;15.90;57.40;;;;;;4129836;28;19914;-82
2023/06/18 00:28:37;;;;;;;;;;;15.70;57.50;;;;;;4137960;28;20427;-82
2023/06/18 00:30:57;;;;;;;;;;;15.70;57.50;;;;;;4135175;28;19928;-83
2023/06/18 00:33:19;;;;;;;;;;;15.70;57.40;;;;;;4142101;28;19923;-80
2023/06/18 00:35:40;;;;;;;;;;;15.70;57.30;;;;;;4137777;28;20281;-81
2023/06/18 00:38:03;;;;;;;;;;;15.60;57.30;;;;;;4122662;28;20479;-82
2023/06/18 00:40:24;;;;;;;;;;;15.50;57.40;;;;;;4127936;28;20000;-82
2023/06/18 00:42:48;;;;;;;;;;;15.50;57.40;;;;;;4126431;28;20303;-84
2023/06/18 00:45:09;;;;;;;;;;;15.50;57.60;;;;;;4127253;28;20015;-81
2023/06/18 00:47:30;;;;;;;;;;;15.50;57.70;;;;;;4129577;28;19945;-83
2023/06/18 00:49:51;;;;;;;;;;;15.50;57.80;;;;;;4125656;28;19957;-83
2023/06/18 00:52:13;;;;;;;;;;;15.40;57.50;;;;;;4127837;28;19914;-82
2023/06/18 00:54:35;;;;;;;;;;;15.30;56.70;;;;;;4127956;28;19918;-81
2023/06/18 00:56:59;;;;;;;;;;;15.30;57.00;;;;;;4121753;28;19921;-81
2023/06/18 00:59:23;;;;;;;;;;;15.20;57.20;;;;;;4125222;28;19918;-83
2023/06/18 01:01:45;;;;;;;;;;;15.20;57.00;;;;;;4132146;28;19928;-83
2023/06/18 01:04:06;;;;;;;;;;;15.20;56.50;;;;;;4128296;28;20001;-84
2023/06/18 01:06:27;;;;;;;;;;;15.10;56.60;;;;;;4128068;28;19922;-83
2023/06/18 01:08:48;;;;;;;;;;;15.10;57.20;;;;;;4130517;28;19918;-84
2023/06/18 01:11:09;;;;;;;;;;;15.00;57.50;;;;;;4130731;28;19980;-82
2023/06/18 01:13:36;;;;;;;;;;;15.10;57.90;;;;;;4130513;28;20060;-82
2023/06/18 01:16:03;;;;;;;;;;;15.00;58.10;;;;;;4130047;28;19917;-83
2023/06/18 01:18:24;;;;;;;;;;;14.90;58.20;;;;;;4133467;28;19971;-81
2023/06/18 01:20:45;;;;;;;;;;;14.90;58.10;;;;;;4129292;28;19910;-82
2023/06/18 01:23:21;;;;;;;;;;;14.90;58.10;;;;;;4121101;28;19910;-82
2023/06/18 01:25:43;;;;;;;;;;;14.80;58.20;;;;;;4129547;28;19914;-81
2023/06/18 01:28:07;;;;;;;;;;;14.80;58.40;;;;;;4129937;28;19970;-83
2023/06/18 01:30:28;;;;;;;;;;;14.80;58.30;;;;;;4126232;28;20280;-82
2023/06/18 01:32:49;;;;;;;;;;;14.70;57.70;;;;;;4131402;28;19917;-83
2023/06/18 01:35:16;;;;;;;;;;;14.70;57.90;;;;;;4118921;28;19928;-83
2023/06/18 01:37:46;;;;;;;;;;;14.70;58.10;;;;;;4129251;28;19929;-81
2023/06/18 01:40:11;;;;;;;;;;;14.60;58.40;;;;;;4131387;28;19921;-83
2023/06/18 01:42:33;;;;;;;;;;;14.70;58.70;;;;;;4147126;28;19917;-83
2023/06/18 01:45:02;;;;;;;;;;;14.60;58.70;;;;;;4131966;28;20334;-82
2023/06/18 01:47:26;;;;;;;;;;;14.60;58.80;;;;;;4134309;28;19909;-82
2023/06/18 01:49:47;;;;;;;;;;;14.60;58.90;;;;;;4127301;28;20072;-83
2023/06/18 01:52:09;;;;;;;;;;;14.60;58.80;;;;;;4125876;28;20462;-82
2023/06/18 01:54:29;;;;;;;;;;;14.50;58.80;;;;;;4131098;28;19956;-82
2023/06/18 01:56:51;;;;;;;;;;;14.50;59.00;;;;;;4125624;28;19917;-81
2023/06/18 01:59:12;;;;;;;;;;;14.50;59.20;;;;;;4128883;28;20459;-82
2023/06/18 02:01:34;;;;;;;;;;;14.40;59.30;;;;;;4127142;28;19922;-82
2023/06/18 02:03:56;;;;;;;;;;;14.40;59.50;;;;;;4126865;28;19917;-82
2023/06/18 02:06:17;;;;;;;;;;;14.40;59.60;;;;;;4127247;28;19928;-83
2023/06/18 02:08:37;;;;;;;;;;;14.40;59.60;;;;;;4128144;28;19916;-82
2023/06/18 02:10:58;;;;;;;;;;;14.40;59.90;;;;;;4122639;28;19918;-82
2023/06/18 02:13:19;;;;;;;;;;;14.40;59.70;;;;;;4129156;28;19929;-81
2023/06/18 02:15:40;;;;;;;;;;;14.30;59.70;;;;;;4127026;28;20414;-83
2023/06/18 02:18:02;;;;;;;;;;;14.30;59.70;;;;;;4127826;28;19914;-82
2023/06/18 02:20:22;;;;;;;;;;;14.30;59.70;;;;;;4123081;28;19922;-82
2023/06/18 02:22:43;;;;;;;;;;;14.30;59.70;;;;;;4127045;28;20264;-82
2023/06/18 02:25:05;;;;;;;;;;;14.20;59.80;;;;;;4130501;28;19909;-83
2023/06/18 02:27:25;;;;;;;;;;;14.20;59.90;;;;;;4124647;28;19925;-83
2023/06/18 02:29:47;;;;;;;;;;;14.20;60.00;;;;;;4129042;28;20313;-82
2023/06/18 02:32:08;;;;;;;;;;;14.20;60.10;;;;;;4124233;28;20183;-83
2023/06/18 02:34:29;;;;;;;;;;;14.20;60.20;;;;;;4125992;28;20422;-83
2023/06/18 02:36:50;;;;;;;;;;;14.20;60.20;;;;;;4126991;28;20368;-81
2023/06/18 02:39:11;;;;;;;;;;;14.20;60.30;;;;;;4126959;28;19988;-84
2023/06/18 02:41:32;;;;;;;;;;;14.20;59.90;;;;;;4124161;28;19917;-82
2023/06/18 02:43:53;;;;;;;;;;;14.10;59.70;;;;;;4128561;28;19918;-83
2023/06/18 02:46:14;;;;;;;;;;;14.10;59.70;;;;;;4130466;28;19909;-82
2023/06/18 02:48:35;;;;;;;;;;;14.10;59.90;;;;;;4127875;28;19917;-82
2023/06/18 02:50:56;;;;;;;;;;;14.10;59.90;;;;;;4125446;28;19937;-83
2023/06/18 02:53:17;;;;;;;;;;;14.00;59.70;;;;;;4130022;28;19922;-82
2023/06/18 02:55:41;;;;;;;;;;;14.00;60.00;;;;;;4129330;28;20450;-83
2023/06/18 02:58:02;;;;;;;;;;;14.00;60.20;;;;;;4129951;28;20549;-82
2023/06/18 03:00:23;;;;;;;;;;;13.90;60.40;;;;;;4124155;28;19957;-82
2023/06/18 03:02:44;;;;;;;;;;;13.90;60.30;;;;;;4130452;28;20123;-83
2023/06/18 03:05:05;;;;;;;;;;;13.90;60.00;;;;;;4121714;28;19915;-82
2023/06/18 03:07:27;;;;;;;;;;;13.90;60.30;;;;;;4128083;28;19910;-81
2023/06/18 03:09:47;;;;;;;;;;;13.90;60.40;;;;;;4126362;28;19997;-84
2023/06/18 03:12:08;;;;;;;;;;;13.80;60.60;;;;;;4124691;28;20014;-83
2023/06/18 03:14:29;;;;;;;;;;;13.90;60.90;;;;;;4130476;28;19968;-82
2023/06/18 03:16:50;;;;;;;;;;;13.80;61.00;;;;;;4130857;28;20332;-82
2023/06/18 03:19:11;;;;;;;;;;;13.80;61.20;;;;;;4129675;28;19953;-82
2023/06/18 03:21:33;;;;;;;;;;;13.80;61.50;;;;;;4125534;28;19917;-83
2023/06/18 03:23:54;;;;;;;;;;;13.80;61.40;;;;;;4126746;28;19917;-81
2023/06/18 03:26:15;;;;;;;;;;;13.80;61.40;;;;;;4128208;28;19985;-82
2023/06/18 03:28:36;;;;;;;;;;;13.70;61.10;;;;;;4129084;28;19972;-85
2023/06/18 03:30:57;;;;;;;;;;;13.80;61.20;;;;;;4129304;28;19928;-83
2023/06/18 03:33:21;;;;;;;;;;;13.80;61.20;;;;;;4129252;28;19942;-81
2023/06/18 03:35:42;;;;;;;;;;;13.70;61.10;;;;;;4137579;28;19941;-83
2023/06/18 03:38:03;;;;;;;;;;;13.80;61.50;;;;;;4137867;28;19913;-84
2023/06/18 03:40:24;;;;;;;;;;;13.70;61.60;;;;;;4133211;28;19981;-83
2023/06/18 03:42:45;;;;;;;;;;;13.80;61.70;;;;;;4127559;28;20064;-84
2023/06/18 03:45:05;;;;;;;;;;;13.80;62.00;;;;;;4132185;28;19949;-83
2023/06/18 03:47:26;;;;;;;;;;;13.80;62.10;;;;;;4127355;28;20007;-81
2023/06/18 03:49:47;;;;;;;;;;;13.80;62.20;;;;;;4133643;28;20422;-82
2023/06/18 03:52:08;;;;;;;;;;;13.80;62.30;;;;;;4138547;28;19909;-83
2023/06/18 03:54:29;;;;;;;;;;;13.90;62.70;;;;;;4140546;28;20383;-84
2023/06/18 03:56:50;;;;;;;;;;;13.80;62.60;;;;;;4141950;28;19902;-84
2023/06/18 03:59:11;;;;;;;;;;;13.80;62.50;;;;;;4148632;28;19981;-83
2023/06/18 04:01:32;;;;;;;;;;;13.80;62.60;;;;;;4143637;28;20029;-83
2023/06/18 04:03:52;;;;;;;;;;;13.90;62.70;;;;;;4128087;28;19944;-84
2023/06/18 04:06:13;;;;;;;;;;;13.90;62.70;;;;;;4132809;28;19923;-83
2023/06/18 04:08:34;;;;;;;;;;;13.90;62.70;;;;;;4131864;28;19924;-84
2023/06/18 04:10:55;;;;;;;;;;;14.00;63.00;;;;;;4132724;28;19922;-83
2023/06/18 04:13:19;;;;;;;;;;;14.00;63.20;;;;;;4130477;28;19914;-84
2023/06/18 04:15:40;;;;;;;;;;;14.00;63.70;;;;;;4126438;28;19924;-82
2023/06/18 04:18:01;;;;;;;;;;;14.00;63.90;;;;;;4127237;28;20257;-83
2023/06/18 04:20:22;;;;;;;;;;;14.00;64.10;;;;;;4125605;28;19949;-83
2023/06/18 04:22:42;;;;;;;;;;;14.00;64.30;;;;;;4132023;28;19914;-83
2023/06/18 04:25:03;;;;;;;;;;;14.00;64.30;;;;;;4130713;28;19981;-81
2023/06/18 04:27:24;;;;;;;;;;;14.10;64.50;;;;;;4128469;28;19920;-82
2023/06/18 04:29:45;;;;;;;;;;;14.10;64.50;;;;;;4127708;28;20399;-83
2023/06/18 04:32:08;;;;;;;;;;;14.10;64.60;;;;;;4132613;28;19922;-83
2023/06/18 04:34:29;;;;;;;;;;;14.20;64.70;;;;;;4129281;28;19992;-79
2023/06/18 04:36:49;;;;;;;;;;;14.30;65.40;;;;;;4121821;28;19965;-84
2023/06/18 04:39:11;;;;;;;;;;;14.30;66.30;;;;;;4127248;28;20087;-83
2023/06/18 04:41:32;;;;;;;;;;;14.40;67.00;;;;;;4126330;28;19914;-83
2023/06/18 04:43:53;;;;;;;;;;;14.40;67.00;;;;;;4127158;28;20023;-83
2023/06/18 04:46:14;;;;;;;;;;;14.50;66.70;;;;;;4128876;28;20111;-82
2023/06/18 04:48:34;;;;;;;;;;;14.50;66.80;;;;;;4125356;28;19980;-83
2023/06/18 04:50:55;;;;;;;;;;;14.60;66.00;;;;;;4123612;28;20002;-83
2023/06/18 04:53:16;;;;;;;;;;;14.60;66.10;;;;;;4130632;28;19947;-83
2023/06/18 04:55:37;;;;;;;;;;;14.60;65.20;;;;;;4129742;28;19918;-83
2023/06/18 04:57:58;;;;;;;;;;;14.80;65.70;;;;;;4125653;28;19928;-81
2023/06/18 05:00:20;;;;;;;;;;;14.80;65.30;;;;;;4126362;28;19910;-83
2023/06/18 05:02:40;;;;;;;;;;;14.90;64.90;;;;;;4124506;28;19944;-81
2023/06/18 05:05:01;;;;;;;;;;;15.00;64.20;;;;;;4122893;28;19921;-82
2023/06/18 05:07:22;;;;;;;;;;;15.00;64.60;;;;;;4127842;28;19910;-82
2023/06/18 05:09:43;;;;;;;;;;;15.10;65.70;;;;;;4123463;28;19944;-81
2023/06/18 05:12:04;;;;;;;;;;;15.10;66.10;;;;;;4123593;28;20025;-82
2023/06/18 05:14:27;;;;;;;;;;;15.30;66.40;;;;;;4128930;28;20012;-83
2023/06/18 05:16:48;;;;;;;;;;;15.30;67.50;;;;;;4121356;28;19922;-82
2023/06/18 05:19:09;;;;;;;;;;;15.50;67.80;;;;;;4127236;28;20381;-81
2023/06/18 05:21:29;;;;;;;;;;;15.60;67.80;;;;;;4125512;28;19956;-81
2023/06/18 05:23:50;;;;;;;;;;;15.70;68.30;;;;;;4122917;28;19968;-83
2023/06/18 05:26:11;;;;;;;;;;;15.80;68.80;;;;;;4127874;28;19928;-83
2023/06/18 05:28:32;;;;;;;;;;;16.00;69.60;;;;;;4128412;28;19914;-82
2023/06/18 05:30:53;;;;;;;;;;;16.10;69.90;;;;;;4125283;28;19913;-82
2023/06/18 05:33:13;;;;;;;;;;;16.30;70.10;;;;;;4125580;28;19914;-83
2023/06/18 05:35:34;;;;;;;;;;;16.40;70.30;;;;;;4121516;28;20133;-83
2023/06/18 05:37:55;;;;;;;;;;;16.60;70.20;;;;;;4126949;28;20394;-81
2023/06/18 05:40:16;;;;;;;;;;;16.70;70.10;;;;;;4127439;28;19925;-82
2023/06/18 05:42:39;;;;;;;;;;;16.80;70.10;;;;;;4119561;28;19981;-84
2023/06/18 05:45:00;;;;;;;;;;;17.00;69.80;;;;;;4121701;28;20712;-83
2023/06/18 05:47:20;;;;;;;;;;;17.20;69.60;;;;;;4123854;28;19917;-82
2023/06/18 05:49:41;;;;;;;;;;;17.30;71.00;;;;;;4122444;28;20078;-83
2023/06/18 05:52:02;;;;;;;;;;;17.40;70.70;;;;;;4129139;28;19985;-82
2023/06/18 05:54:25;;;;;;;;;;;17.60;71.10;;;;;;4130433;28;19964;-83
2023/06/18 05:56:45;;;;;;;;;;;17.70;73.20;;;;;;4129636;28;20354;-82
2023/06/18 05:59:06;;;;;;;;;;;17.80;73.10;;;;;;4125728;28;19917;-83
2023/06/18 06:01:27;;;;;;;;;;;18.00;72.70;;;;;;4127025;28;19977;-82
2023/06/18 06:03:48;;;;;;;;;;;18.20;72.50;;;;;;4132958;28;20001;-84
2023/06/18 06:06:09;;;;;;;;;;;18.30;73.70;;;;;;4133030;28;19917;-81
2023/06/18 06:08:30;;;;;;;;;;;18.40;73.30;;;;;;4126139;28;19914;-82
2023/06/18 06:10:51;;;;;;;;;;;18.50;73.00;;;;;;4129122;28;19925;-82
2023/06/18 06:13:12;;;;;;;;;;;18.70;72.20;;;;;;4132841;28;20264;-81
2023/06/18 06:15:33;;;;;;;;;;;18.80;72.40;;;;;;4125755;28;20268;-81
2023/06/18 06:17:54;;;;;;;;;;;18.90;72.40;;;;;;4129946;28;19917;-82
2023/06/18 06:20:15;;;;;;;;;;;19.10;72.70;;;;;;4129906;28;19927;-82
2023/06/18 06:22:36;;;;;;;;;;;19.20;72.40;;;;;;4131218;28;19920;-83
2023/06/18 06:24:57;;;;;;;;;;;19.40;71.00;;;;;;4137712;28;19922;-82
2023/06/18 06:27:18;;;;;;;;;;;19.50;71.70;;;;;;4132975;28;19917;-82
2023/06/18 06:29:39;;;;;;;;;;;19.70;71.10;;;;;;4131883;28;20351;-83
2023/06/18 06:32:00;;;;;;;;;;;19.80;69.70;;;;;;4134544;28;19929;-84
2023/06/18 06:34:21;;;;;;;;;;;19.90;68.90;;;;;;4137564;28;19977;-83
2023/06/18 06:36:42;;;;;;;;;;;20.00;67.20;;;;;;4137606;28;20515;-83
2023/06/18 06:39:03;;;;;;;;;;;20.20;66.90;;;;;;4138492;28;19917;-81
2023/06/18 06:41:24;;;;;;;;;;;20.30;67.70;;;;;;4138220;28;19913;-83
2023/06/18 06:43:45;;;;;;;;;;;20.40;67.50;;;;;;4128817;28;19953;-83
2023/06/18 06:46:06;;;;;;;;;;;20.50;66.80;;;;;;4126470;28;19980;-83
2023/06/18 06:48:26;;;;;;;;;;;20.60;66.10;;;;;;4129493;28;19914;-81
2023/06/18 06:50:47;;;;;;;;;;;20.70;66.10;;;;;;4130818;28;20009;-84
2023/06/18 06:53:08;;;;;;;;;;;20.70;65.20;;;;;;4126028;28;19933;-82
2023/06/18 06:55:29;;;;;;;;;;;20.80;64.70;;;;;;4123316;28;20627;-82
2023/06/18 06:57:50;;;;;;;;;;;20.90;64.60;;;;;;4123263;28;19921;-81
2023/06/18 07:00:11;;;;;;;;;;;21.00;64.10;;;;;;4122986;28;20438;-83
2023/06/18 07:02:33;;;;;;;;;;;21.10;63.90;;;;;;4120978;28;19982;-82
2023/06/18 07:04:54;;;;;;;;;;;21.20;63.00;;;;;;4119543;28;20024;-82
2023/06/18 07:07:15;;;;;;;;;;;21.30;62.20;;;;;;4121007;28;20423;-82
2023/06/18 07:09:36;;;;;;;;;;;21.40;62.10;;;;;;4122078;28;19996;-85
2023/06/18 07:11:57;;;;;;;;;;;21.50;60.90;;;;;;4122351;28;19925;-84
2023/06/18 07:14:18;;;;;;;;;;;21.50;60.50;;;;;;4125849;28;19921;-84
2023/06/18 07:16:39;;;;;;;;;;;21.60;60.80;;;;;;4115353;28;20347;-82
2023/06/18 07:19:01;;;;;;;;;;;21.70;60.40;;;;;;4114782;28;19945;-82
2023/06/18 07:21:22;;;;;;;;;;;21.70;59.90;;;;;;4118841;28;19910;-83
2023/06/18 07:23:42;;;;;;;;;;;21.80;59.60;;;;;;4122029;28;19981;-83
2023/06/18 07:26:03;;;;;;;;;;;21.90;59.20;;;;;;4125116;28;19917;-83
2023/06/18 07:28:24;;;;;;;;;;;21.90;59.30;;;;;;4124592;28;19925;-81
2023/06/18 07:30:45;;;;;;;;;;;21.90;59.80;;;;;;4126892;28;19918;-83
2023/06/18 07:33:06;;;;;;;;;;;22.00;58.90;;;;;;4122095;28;19940;-83
2023/06/18 07:35:27;;;;;;;;;;;22.10;58.90;;;;;;4113879;28;20168;-80
2023/06/18 07:37:49;;;;;;;;;;;22.10;58.80;;;;;;4116164;28;19953;-83
2023/06/18 07:40:10;;;;;;;;;;;22.20;58.70;;;;;;4123460;28;19914;-86
2023/06/18 07:42:31;;;;;;;;;;;22.30;58.10;;;;;;4122448;28;19922;-84
2023/06/18 07:44:52;;;;;;;;;;;22.40;58.10;;;;;;4120002;28;20105;-83
2023/06/18 07:47:13;;;;;;;;;;;22.40;57.90;;;;;;4114973;28;19909;-82
2023/06/18 07:49:34;;;;;;;;;;;22.50;57.80;;;;;;4123195;28;20514;-85
2023/06/18 07:51:55;;;;;;;;;;;22.50;57.40;;;;;;4118701;28;19922;-81
2023/06/18 07:54:18;;;;;;;;;;;22.60;57.60;;;;;;4116778;28;21384;-82
2023/06/18 07:56:39;;;;;;;;;;;22.70;57.80;;;;;;4125478;28;19932;-83
2023/06/18 07:59:00;;;;;;;;;;;22.80;57.40;;;;;;4122764;28;19921;-84
2023/06/18 08:01:20;;;;;;;;;;;22.80;57.10;;;;;;4108130;28;19910;-83
2023/06/18 08:03:41;;;;;;;;;;;22.90;57.10;;;;;;4116829;28;19941;-83
2023/06/18 08:06:02;;;;;;;;;;;23.00;57.10;;;;;;4122097;28;19930;-81
2023/06/18 08:08:23;;;;;;;;;;;23.10;56.70;;;;;;4118546;28;19918;-83
2023/06/18 08:10:44;;;;;;;;;;;23.10;56.80;;;;;;4119618;28;19921;-82
2023/06/18 08:13:05;;;;;;;;;;;23.20;56.60;;;;;;4121884;28;20789;-82
2023/06/18 08:15:26;;;;;;;;;;;23.30;55.90;;;;;;4126845;28;19918;-82
2023/06/18 08:17:47;;;;;;;;;;;23.30;55.50;;;;;;4126562;28;20421;-84
2023/06/18 08:20:08;;;;;;;;;;;23.40;55.80;;;;;;4126535;28;19955;-83
2023/06/18 08:22:28;;;;;;;;;;;23.50;55.40;;;;;;4116284;28;19945;-81
2023/06/18 08:24:49;;;;;;;;;;;23.50;55.10;;;;;;4117932;28;20406;-82
2023/06/18 08:27:12;;;;;;;;;;;23.60;54.50;;;;;;4123276;28;20027;-82
2023/06/18 08:29:33;;;;;;;;;;;23.60;53.90;;;;;;4129037;28;20743;-83
2023/06/18 08:31:54;;;;;;;;;;;23.60;54.50;;;;;;4123620;28;20020;-83
2023/06/18 08:34:15;;;;;;;;;;;23.70;53.80;;;;;;4120029;28;20023;-83
2023/06/18 08:36:35;;;;;;;;;;;23.80;54.10;;;;;;4120618;28;19910;-83
2023/06/18 08:38:56;;;;;;;;;;;23.80;53.70;;;;;;4123901;28;19918;-82
2023/06/18 08:41:17;;;;;;;;;;;23.90;53.20;;;;;;4126869;28;19918;-81
2023/06/18 08:43:38;;;;;;;;;;;23.90;53.30;;;;;;4123245;28;20347;-82
2023/06/18 08:46:03;;;;;;;;;;;24.00;53.40;;;;;;4123758;28;19937;-83
2023/06/18 08:48:26;;;;;;;;;;;24.10;53.20;;;;;;4118830;28;19932;-86
2023/06/18 08:50:48;;;;;;;;;;;24.10;52.70;;;;;;4121416;28;19972;-83
2023/06/18 08:53:15;;;;;;;;;;;24.20;51.70;;;;;;4125476;28;19963;-82
2023/06/18 08:55:36;;;;;;;;;;;24.20;51.90;;;;;;4125692;28;19956;-82
2023/06/18 08:58:02;;;;;;;;;;;24.30;52.20;;;;;;4125241;28;20338;-83
2023/06/18 09:00:22;;;;;;;;;;;24.30;52.00;;;;;;4118714;28;20307;-83
2023/06/18 09:02:44;;;;;;;;;;;24.30;52.20;;;;;;4119882;28;19928;-82
2023/06/18 09:05:05;;;;;;;;;;;24.40;52.30;;;;;;4121634;28;19914;-82
2023/06/18 09:07:26;;;;;;;;;;;24.40;52.10;;;;;;4118143;28;19921;-83
2023/06/18 09:09:47;;;;;;;;;;;24.50;51.90;;;;;;4121251;28;20009;-85
2023/06/18 09:12:08;;;;;;;;;;;24.60;51.50;;;;;;4119920;28;19996;-83
2023/06/18 09:14:30;;;;;;;;;;;24.70;51.70;;;;;;4128117;28;20400;-84
2023/06/18 09:16:53;;;;;;;;;;;24.70;51.50;;;;;;4125181;28;19914;-83
2023/06/18 09:19:16;;;;;;;;;;;24.80;51.50;;;;;;4122435;28;20001;-81
2023/06/18 09:21:38;;;;;;;;;;;24.90;50.80;;;;;;4128912;28;19918;-83
2023/06/18 09:23:59;;;;;;;;;;;24.90;51.00;;;;;;4130199;28;19925;-83
2023/06/18 09:26:20;;;;;;;;;;;25.00;50.90;;;;;;4124537;28;20001;-85
2023/06/18 09:28:41;;;;;;;;;;;25.10;50.60;;;;;;4118901;28;19984;-83
2023/06/18 09:31:03;;;;;;;;;;;25.10;50.60;;;;;;4125496;28;19918;-83
2023/06/18 09:33:31;;;;;;;;;;;25.20;49.40;;;;;;4133261;28;20025;-84
2023/06/18 09:35:59;;;;;;;;;;;25.20;50.00;;;;;;4130500;28;19941;-82
2023/06/18 09:38:20;;;;;;;;;;;25.30;50.00;;;;;;4134972;28;20585;-83
2023/06/18 09:40:48;;;;;;;;;;;25.40;50.00;;;;;;4131581;28;19921;-84
2023/06/18 09:43:09;;;;;;;;;;;25.40;49.60;;;;;;4132051;28;19910;-84
2023/06/18 09:45:30;;;;;;;;;;;25.40;49.60;;;;;;4132914;28;19924;-83
2023/06/18 09:47:52;;;;;;;;;;;25.40;49.30;;;;;;4130517;28;20328;-82
2023/06/18 09:50:13;;;;;;;;;;;25.50;49.20;;;;;;4125784;28;19918;-82
2023/06/18 09:52:46;;;;;;;;;;;25.50;48.80;;;;;;4120794;28;19922;-82
2023/06/18 09:55:24;;;;;;;;;;;25.50;48.50;;;;;;4131346;28;20422;-82
2023/06/18 09:57:48;;;;;;;;;;;25.50;48.60;;;;;;4129201;28;19996;-82
2023/06/18 10:00:11;;;;;;;;;;;25.50;48.50;;;;;;4133619;28;19945;-84
2023/06/18 10:02:36;;;;;;;;;;;25.60;48.60;;;;;;4128571;28;19929;-82
2023/06/18 10:04:57;;;;;;;;;;;25.60;48.60;;;;;;4128282;28;20542;-83
2023/06/18 10:07:19;;;;;;;;;;;25.60;48.40;;;;;;4129086;28;19918;-82
2023/06/18 10:09:40;;;;;;;;;;;25.60;48.20;;;;;;4126841;28;19921;-82
2023/06/18 10:12:01;;;;;;;;;;;25.60;48.20;;;;;;4123839;28;19969;-82
2023/06/18 10:14:25;;;;;;;;;;;25.60;47.30;;;;;;4128377;28;19926;-80
2023/06/18 10:16:49;;;;;;;;;;;25.70;46.60;;;;;;4124125;28;19922;-82
2023/06/18 10:19:27;;;;;;;;;;;25.70;46.50;;;;;;4126746;28;19921;-82
2023/06/18 10:21:57;;;;;;;;;;;25.70;46.40;;;;;;4126293;28;19922;-82
2023/06/18 10:24:20;;;;;;;;;;;25.70;46.60;;;;;;4130646;28;19921;-81
2023/06/18 10:26:41;;;;;;;;;;;25.80;47.10;;;;;;4128470;28;19921;-82
2023/06/18 10:29:02;;;;;;;;;;;25.80;47.00;;;;;;4117662;28;20478;-82
2023/06/18 10:31:23;;;;;;;;;;;25.80;47.00;;;;;;4120500;28;19926;-85
2023/06/18 10:33:45;;;;;;;;;;;25.90;46.00;;;;;;4123049;28;19937;-80
2023/06/18 10:36:07;;;;;;;;;;;25.90;46.20;;;;;;4126704;28;20407;-81
2023/06/18 10:38:28;;;;;;;;;;;26.00;46.30;;;;;;4128478;28;19921;-82
2023/06/18 10:41:04;;;;;;;;;;;26.00;45.80;;;;;;4133303;28;19995;-80
2023/06/18 10:43:25;;;;;;;;;;;26.00;45.20;;;;;;4136962;28;19973;-82
2023/06/18 10:46:22;;;;;;;;;;;26.00;45.50;;;;;;4133050;28;19918;-81
2023/06/18 10:49:05;;;;;;;;;;;26.10;45.70;;;;;;4051264;29;20350;-83
2023/06/18 10:51:28;;;;;;;;;;;26.10;45.60;;;;;;4135127;28;20337;-82
2023/06/18 10:54:09;;;;;;;;;;;26.20;45.60;;;;;;4133707;28;20419;-83
2023/06/18 10:56:30;;;;;;;;;;;26.20;45.40;;;;;;4135543;28;19994;-82
2023/06/18 10:58:51;;;;;;;;;;;26.20;44.90;;;;;;4131387;28;19972;-83
2023/06/18 11:01:25;;;;;;;;;;;26.30;45.00;;;;;;4132349;28;19979;-83
2023/06/18 11:03:49;;;;;;;;;;;26.40;44.60;;;;;;4130150;28;19918;-83
2023/06/18 11:06:10;;;;;;;;;;;26.40;44.60;;;;;;4136215;28;20036;-83
2023/06/18 11:08:32;;;;;;;;;;;26.50;43.70;;;;;;4128090;28;19968;-82
2023/06/18 11:11:12;;;;;;;;;;;26.50;43.70;;;;;;4134706;28;20013;-83
2023/06/18 11:13:37;;;;;;;;;;;26.50;42.60;;;;;;4134725;28;19914;-82
2023/06/18 11:16:09;;;;;;;;;;;26.60;43.00;;;;;;4132849;28;19925;-83
2023/06/18 11:18:30;;;;;;;;;;;26.60;43.10;;;;;;4138681;28;19914;-83
2023/06/18 11:20:51;;;;;;;;;;;26.60;43.30;;;;;;4131698;28;19980;-83
2023/06/18 11:23:12;;;;;;;;;;;26.70;42.70;;;;;;4132817;28;19922;-82
2023/06/18 11:25:33;;;;;;;;;;;26.70;42.30;;;;;;4132677;28;21231;-83
2023/06/18 11:27:54;;;;;;;;;;;26.70;42.10;;;;;;4129805;28;19922;-83
2023/06/18 11:30:17;;;;;;;;;;;26.70;42.70;;;;;;4128032;28;19965;-82
2023/06/18 11:32:39;;;;;;;;;;;26.70;43.40;;;;;;4135724;28;20368;-83
2023/06/18 11:35:00;;;;;;;;;;;26.70;42.30;;;;;;4130852;28;19921;-82
2023/06/18 11:37:21;;;;;;;;;;;26.80;42.20;;;;;;4128091;28;19918;-83
2023/06/18 11:39:42;;;;;;;;;;;26.80;42.90;;;;;;4129214;28;19913;-81
2023/06/18 11:42:13;;;;;;;;;;;26.80;42.60;;;;;;4131844;28;19918;-82
2023/06/18 11:44:34;;;;;;;;;;;26.90;43.00;;;;;;4135758;28;19914;-82
2023/06/18 11:46:58;;;;;;;;;;;27.00;42.80;;;;;;4131552;28;20589;-83
2023/06/18 11:49:19;;;;;;;;;;;27.00;42.00;;;;;;4127504;28;19918;-83
2023/06/18 11:51:40;;;;;;;;;;;27.00;42.30;;;;;;4127292;28;19981;-82
2023/06/18 11:54:01;;;;;;;;;;;27.10;42.10;;;;;;4131120;28;20428;-82
2023/06/18 11:56:22;;;;;;;;;;;27.10;41.50;;;;;;4127846;28;19914;-82
2023/06/18 11:58:43;;;;;;;;;;;27.20;41.60;;;;;;4135199;28;19913;-81
2023/06/18 12:01:05;;;;;;;;;;;27.20;41.40;;;;;;4133959;28;20531;-83
2023/06/18 12:03:32;;;;;;;;;;;27.20;41.20;;;;;;4130547;28;20505;-81
2023/06/18 12:05:53;;;;;;;;;;;27.20;40.80;;;;;;4130204;28;19933;-81
2023/06/18 12:08:14;;;;;;;;;;;27.20;41.30;;;;;;4132294;28;19945;-82
2023/06/18 12:10:36;;;;;;;;;;;27.30;40.60;;;;;;4130429;28;19920;-84
2023/06/18 12:12:57;;;;;;;;;;;27.30;40.60;;;;;;4132060;28;19917;-83
2023/06/18 12:15:23;;;;;;;;;;;27.30;40.60;;;;;;4130440;28;19928;-83
2023/06/18 12:17:50;;;;;;;;;;;27.30;40.40;;;;;;4132449;28;19921;-83
2023/06/18 12:20:11;;;;;;;;;;;27.30;40.40;;;;;;4135036;28;19918;-83
2023/06/18 12:22:32;;;;;;;;;;;27.20;40.20;;;;;;4131868;28;20663;-84
2023/06/18 12:24:53;;;;;;;;;;;27.20;40.10;;;;;;4131048;28;19918;-83
2023/06/18 12:27:14;;;;;;;;;;;27.20;40.40;;;;;;4133057;28;19918;-83
2023/06/18 12:29:38;;;;;;;;;;;27.20;40.50;;;;;;4132253;28;20040;-83
2023/06/18 12:32:01;;;;;;;;;;;27.20;40.80;;;;;;4133697;28;19933;-81
2023/06/18 12:34:22;;;;;;;;;;;27.20;40.80;;;;;;4128741;28;19914;-82
2023/06/18 12:36:43;;;;;;;;;;;27.20;40.50;;;;;;4131075;28;19914;-81
2023/06/18 12:39:10;;;;;;;;;;;27.20;40.90;;;;;;4135211;28;19913;-81
2023/06/18 12:41:35;;;;;;;;;;;27.30;41.40;;;;;;4129989;28;19914;-81
2023/06/18 12:43:56;;;;;;;;;;;27.30;40.80;;;;;;4134863;28;19918;-80
2023/06/18 12:46:24;;;;;;;;;;;27.40;40.80;;;;;;4130757;28;19938;-80
2023/06/18 12:48:45;;;;;;;;;;;27.40;40.30;;;;;;4129206;28;20138;-80
2023/06/18 12:51:06;;;;;;;;;;;27.40;40.40;;;;;;4127002;28;19932;-80
2023/06/18 12:53:27;;;;;;;;;;;27.40;40.40;;;;;;4127672;28;20016;-80
2023/06/18 12:55:50;;;;;;;;;;;27.40;40.60;;;;;;4126237;28;19976;-80
2023/06/18 12:58:21;;;;;;;;;;;27.40;40.60;;;;;;4124332;28;20296;-81
2023/06/18 13:00:42;;;;;;;;;;;27.40;40.40;;;;;;4127975;28;19913;-81
2023/06/18 13:03:03;;;;;;;;;;;27.40;39.80;;;;;;4121653;28;19925;-80
2023/06/18 13:05:24;;;;;;;;;;;27.50;39.90;;;;;;4123597;28;19921;-80
2023/06/18 13:07:49;;;;;;;;;;;27.40;39.70;;;;;;4120491;28;19917;-80
2023/06/18 13:10:10;;;;;;;;;;;27.40;38.40;;;;;;4124793;28;20345;-82
2023/06/18 13:12:30;;;;;;;;;;;27.40;39.70;;;;;;4127180;28;19921;-80
2023/06/18 13:14:51;;;;;;;;;;;27.40;39.60;;;;;;4125546;28;19921;-82
2023/06/18 13:17:12;;;;;;;;;;;27.40;40.40;;;;;;4124900;28;19950;-83
2023/06/18 13:19:33;;;;;;;;;;;27.40;39.90;;;;;;4119802;28;19931;-83
2023/06/18 13:21:54;;;;;;;;;;;27.40;39.70;;;;;;4127695;28;19961;-83
2023/06/18 13:24:15;;;;;;;;;;;27.40;39.80;;;;;;4128123;28;19917;-83
2023/06/18 13:26:35;;;;;;;;;;;27.40;39.60;;;;;;4128839;28;19918;-81
2023/06/18 13:28:56;;;;;;;;;;;27.40;39.00;;;;;;4127971;28;19918;-82
2023/06/18 13:31:17;;;;;;;;;;;27.40;38.40;;;;;;4130468;28;20470;-82
2023/06/18 13:33:38;;;;;;;;;;;27.40;38.80;;;;;;4123864;28;19945;-82
2023/06/18 13:35:58;;;;;;;;;;;27.40;39.20;;;;;;4133493;28;19913;-81
2023/06/18 13:38:19;;;;;;;;;;;27.40;38.90;;;;;;4129282;28;19923;-82
2023/06/18 13:40:40;;;;;;;;;;;27.40;37.70;;;;;;4133517;28;20324;-82
2023/06/18 13:43:01;;;;;;;;;;;27.40;38.50;;;;;;4126278;28;20531;-81
2023/06/18 13:45:22;;;;;;;;;;;27.40;38.00;;;;;;4122990;28;19910;-81